sensor_id;sensor_type;location;lat;lon;timestamp;temperature;humidity
55083;DHT22;40978;52.850;6.506;2023-05-08T00:00:07;12.50;99.90
55083;DHT22;40978;52.850;6.506;2023-05-08T00:02:33;12.40;99.90
55083;DHT22;40978;52.850;6.506;2023-05-08T00:04:59;12.40;99.90
55083;DHT22;40978;52.850;6.506;2023-05-08T00:07:25;12.40;99.90
55083;DHT22;40978;52.850;6.506;2023-05-08T00:09:50;12.30;99.90
55083;DHT22;40978;52.850;6.506;2023-05-08T00:12:23;12.30;99.90
55083;DHT22;40978;52.850;6.506;2023-05-08T00:14:49;12.30;99.90
55083;DHT22;40978;52.850;6.506;2023-05-08T00:17:15;12.20;99.90
55083;DHT22;40978;52.850;6.506;2023-05-08T00:19:40;12.20;99.90
55083;DHT22;40978;52.850;6.506;2023-05-08T00:22:06;12.20;99.90
55083;DHT22;40978;52.850;6.506;2023-05-08T00:24:32;12.10;99.90
55083;DHT22;40978;52.850;6.506;2023-05-08T00:26:57;12.10;99.90
55083;DHT22;40978;52.850;6.506;2023-05-08T00:29:23;12.10;99.90
55083;DHT22;40978;52.850;6.506;2023-05-08T00:31:49;12.10;99.90
55083;DHT22;40978;52.850;6.506;2023-05-08T00:34:14;12.10;99.90
55083;DHT22;40978;52.850;6.506;2023-05-08T00:36:40;12.00;99.90
55083;DHT22;40978;52.850;6.506;2023-05-08T00:39:06;12.00;99.90
55083;DHT22;40978;52.850;6.506;2023-05-08T00:41:32;12.00;99.90
55083;DHT22;40978;52.850;6.506;2023-05-08T00:43:57;12.00;99.90
55083;DHT22;40978;52.850;6.506;2023-05-08T00:46:23;12.00;99.90
55083;DHT22;40978;52.850;6.506;2023-05-08T00:48:49;12.00;99.90
55083;DHT22;40978;52.850;6.506;2023-05-08T00:51:15;11.90;99.90
55083;DHT22;40978;52.850;6.506;2023-05-08T00:53:42;11.90;99.90
55083;DHT22;40978;52.850;6.506;2023-05-08T00:56:11;11.90;99.90
55083;DHT22;40978;52.850;6.506;2023-05-08T00:58:38;11.90;99.90
55083;DHT22;40978;52.850;6.506;2023-05-08T01:01:05;11.80;99.90
55083;DHT22;40978;52.850;6.506;2023-05-08T01:03:32;11.80;99.90
55083;DHT22;40978;52.850;6.506;2023-05-08T01:06:03;11.80;99.90
55083;DHT22;40978;52.850;6.506;2023-05-08T01:08:30;11.80;99.90
55083;DHT22;40978;52.850;6.506;2023-05-08T01:11:17;11.70;99.90
55083;DHT22;40978;52.850;6.506;2023-05-08T01:14:18;11.70;99.90
55083;DHT22;40978;52.850;6.506;2023-05-08T01:17:00;11.70;99.90
55083;DHT22;40978;52.850;6.506;2023-05-08T01:19:56;11.70;99.90
55083;DHT22;40978;52.850;6.506;2023-05-08T01:23:06;11.70;99.90
55083;DHT22;40978;52.850;6.506;2023-05-08T01:28:59;11.70;99.90
55083;DHT22;40978;52.850;6.506;2023-05-08T01:31:43;11.60;99.90
55083;DHT22;40978;52.850;6.506;2023-05-08T01:34:20;11.60;99.90
55083;DHT22;40978;52.850;6.506;2023-05-08T01:36:56;11.50;99.90
55083;DHT22;40978;52.850;6.506;2023-05-08T01:42:23;11.50;99.90
55083;DHT22;40978;52.850;6.506;2023-05-08T01:44:59;11.40;99.90
55083;DHT22;40978;52.850;6.506;2023-05-08T01:47:28;11.40;99.90
55083;DHT22;40978;52.850;6.506;2023-05-08T01:50:01;11.40;99.90
55083;DHT22;40978;52.850;6.506;2023-05-08T01:52:41;11.30;99.90
55083;DHT22;40978;52.850;6.506;2023-05-08T01:55:10;11.30;99.90
55083;DHT22;40978;52.850;6.506;2023-05-08T01:57:42;11.30;99.90
55083;DHT22;40978;52.850;6.506;2023-05-08T02:00:10;11.30;99.90
55083;DHT22;40978;52.850;6.506;2023-05-08T02:02:36;11.20;99.90
55083;DHT22;40978;52.850;6.506;2023-05-08T02:05:04;11.20;99.90
55083;DHT22;40978;52.850;6.506;2023-05-08T02:07:32;11.20;99.90
55083;DHT22;40978;52.850;6.506;2023-05-08T02:10:01;11.20;99.90
55083;DHT22;40978;52.850;6.506;2023-05-08T02:12:28;11.10;99.90
55083;DHT22;40978;52.850;6.506;2023-05-08T02:14:55;11.10;99.90
55083;DHT22;40978;52.850;6.506;2023-05-08T02:17:21;11.10;99.90
55083;DHT22;40978;52.850;6.506;2023-05-08T02:19:48;11.00;99.90
55083;DHT22;40978;52.850;6.506;2023-05-08T02:22:16;11.00;99.90
55083;DHT22;40978;52.850;6.506;2023-05-08T02:24:44;11.00;99.90
55083;DHT22;40978;52.850;6.506;2023-05-08T02:27:11;11.00;99.90
55083;DHT22;40978;52.850;6.506;2023-05-08T02:29:37;10.90;99.90
55083;DHT22;40978;52.850;6.506;2023-05-08T02:32:05;10.90;99.90
55083;DHT22;40978;52.850;6.506;2023-05-08T02:34:33;10.90;99.90
55083;DHT22;40978;52.850;6.506;2023-05-08T02:37:01;10.90;99.90
55083;DHT22;40978;52.850;6.506;2023-05-08T02:39:29;10.80;99.90
55083;DHT22;40978;52.850;6.506;2023-05-08T02:41:56;10.80;99.90
55083;DHT22;40978;52.850;6.506;2023-05-08T02:44:22;10.80;99.90
55083;DHT22;40978;52.850;6.506;2023-05-08T02:49:32;10.80;99.90
55083;DHT22;40978;52.850;6.506;2023-05-08T02:52:44;10.70;99.90
55083;DHT22;40978;52.850;6.506;2023-05-08T02:57:45;10.70;99.90
55083;DHT22;40978;52.850;6.506;2023-05-08T03:00:22;10.70;99.90
55083;DHT22;40978;52.850;6.506;2023-05-08T03:03:10;10.70;99.90
55083;DHT22;40978;52.850;6.506;2023-05-08T03:05:37;10.70;99.90
55083;DHT22;40978;52.850;6.506;2023-05-08T03:08:13;10.70;99.90
55083;DHT22;40978;52.850;6.506;2023-05-08T03:10:42;10.70;99.90
55083;DHT22;40978;52.850;6.506;2023-05-08T03:13:10;10.70;99.90
55083;DHT22;40978;52.850;6.506;2023-05-08T03:18:15;10.80;99.90
55083;DHT22;40978;52.850;6.506;2023-05-08T03:20:47;10.80;99.90
55083;DHT22;40978;52.850;6.506;2023-05-08T03:23:16;10.80;99.90
55083;DHT22;40978;52.850;6.506;2023-05-08T03:25:45;10.80;99.90
55083;DHT22;40978;52.850;6.506;2023-05-08T03:28:11;10.80;99.90
55083;DHT22;40978;52.850;6.506;2023-05-08T03:30:40;10.80;99.90
55083;DHT22;40978;52.850;6.506;2023-05-08T03:33:07;10.80;99.90
55083;DHT22;40978;52.850;6.506;2023-05-08T03:35:37;10.80;99.90
55083;DHT22;40978;52.850;6.506;2023-05-08T03:38:04;10.80;99.90
55083;DHT22;40978;52.850;6.506;2023-05-08T03:40:33;10.80;99.90
55083;DHT22;40978;52.850;6.506;2023-05-08T03:43:07;10.80;99.90
55083;DHT22;40978;52.850;6.506;2023-05-08T03:45:38;10.70;99.90
55083;DHT22;40978;52.850;6.506;2023-05-08T03:48:06;10.70;99.90
55083;DHT22;40978;52.850;6.506;2023-05-08T03:50:34;10.70;99.90
55083;DHT22;40978;52.850;6.506;2023-05-08T03:52:59;10.60;99.90
55083;DHT22;40978;52.850;6.506;2023-05-08T03:55:25;10.60;99.90
55083;DHT22;40978;52.850;6.506;2023-05-08T03:58:23;10.60;99.90
55083;DHT22;40978;52.850;6.506;2023-05-08T04:01:07;10.50;99.90
55083;DHT22;40978;52.850;6.506;2023-05-08T04:11:40;10.40;99.90
55083;DHT22;40978;52.850;6.506;2023-05-08T04:14:09;10.30;99.90
55083;DHT22;40978;52.850;6.506;2023-05-08T04:16:42;10.30;99.90
55083;DHT22;40978;52.850;6.506;2023-05-08T04:19:17;10.30;99.90
55083;DHT22;40978;52.850;6.506;2023-05-08T04:21:46;10.20;99.90
55083;DHT22;40978;52.850;6.506;2023-05-08T04:24:14;10.20;99.90
55083;DHT22;40978;52.850;6.506;2023-05-08T04:26:41;10.20;99.90
55083;DHT22;40978;52.850;6.506;2023-05-08T04:29:08;10.20;99.90
55083;DHT22;40978;52.850;6.506;2023-05-08T04:31:34;10.20;99.90
55083;DHT22;40978;52.850;6.506;2023-05-08T04:34:02;10.20;99.90
55083;DHT22;40978;52.850;6.506;2023-05-08T04:36:30;10.20;99.90
55083;DHT22;40978;52.850;6.506;2023-05-08T04:38:56;10.20;99.90
55083;DHT22;40978;52.850;6.506;2023-05-08T04:41:22;10.20;99.90
55083;DHT22;40978;52.850;6.506;2023-05-08T04:43:48;10.20;99.90
55083;DHT22;40978;52.850;6.506;2023-05-08T04:46:14;10.30;99.90
55083;DHT22;40978;52.850;6.506;2023-05-08T04:48:39;10.20;99.90
55083;DHT22;40978;52.850;6.506;2023-05-08T04:51:05;10.30;99.90
55083;DHT22;40978;52.850;6.506;2023-05-08T04:53:31;10.40;99.90
55083;DHT22;40978;52.850;6.506;2023-05-08T04:55:56;10.40;99.90
55083;DHT22;40978;52.850;6.506;2023-05-08T04:58:23;10.50;99.90
55083;DHT22;40978;52.850;6.506;2023-05-08T05:00:49;10.50;99.90
55083;DHT22;40978;52.850;6.506;2023-05-08T05:03:15;10.60;99.90
55083;DHT22;40978;52.850;6.506;2023-05-08T05:05:40;10.70;99.90
55083;DHT22;40978;52.850;6.506;2023-05-08T05:08:06;10.70;99.90
55083;DHT22;40978;52.850;6.506;2023-05-08T05:10:32;10.80;99.90
55083;DHT22;40978;52.850;6.506;2023-05-08T05:12:57;10.80;99.90
55083;DHT22;40978;52.850;6.506;2023-05-08T05:15:23;10.90;99.90
55083;DHT22;40978;52.850;6.506;2023-05-08T05:17:49;10.90;99.90
55083;DHT22;40978;52.850;6.506;2023-05-08T05:20:15;11.00;99.90
55083;DHT22;40978;52.850;6.506;2023-05-08T05:22:40;11.10;99.90
55083;DHT22;40978;52.850;6.506;2023-05-08T05:25:06;11.10;99.90
55083;DHT22;40978;52.850;6.506;2023-05-08T05:27:35;11.20;99.90
55083;DHT22;40978;52.850;6.506;2023-05-08T05:30:02;11.30;99.90
55083;DHT22;40978;52.850;6.506;2023-05-08T05:32:28;11.40;99.90
55083;DHT22;40978;52.850;6.506;2023-05-08T05:34:54;11.40;99.90
55083;DHT22;40978;52.850;6.506;2023-05-08T05:37:20;11.50;99.90
55083;DHT22;40978;52.850;6.506;2023-05-08T05:39:45;11.50;99.90
55083;DHT22;40978;52.850;6.506;2023-05-08T05:42:11;11.60;99.90
55083;DHT22;40978;52.850;6.506;2023-05-08T05:44:37;11.70;99.90
55083;DHT22;40978;52.850;6.506;2023-05-08T05:47:02;11.70;99.90
55083;DHT22;40978;52.850;6.506;2023-05-08T05:49:34;11.80;99.90
55083;DHT22;40978;52.850;6.506;2023-05-08T05:52:00;11.90;99.90
55083;DHT22;40978;52.850;6.506;2023-05-08T05:54:25;12.00;99.90
55083;DHT22;40978;52.850;6.506;2023-05-08T05:56:51;12.00;99.90
55083;DHT22;40978;52.850;6.506;2023-05-08T05:59:17;12.10;99.90
55083;DHT22;40978;52.850;6.506;2023-05-08T06:01:43;12.20;99.90
55083;DHT22;40978;52.850;6.506;2023-05-08T06:04:08;12.30;99.90
55083;DHT22;40978;52.850;6.506;2023-05-08T06:06:34;12.30;99.90
55083;DHT22;40978;52.850;6.506;2023-05-08T06:09:00;12.40;99.90
55083;DHT22;40978;52.850;6.506;2023-05-08T06:11:26;12.40;99.90
55083;DHT22;40978;52.850;6.506;2023-05-08T06:13:51;12.40;99.90
55083;DHT22;40978;52.850;6.506;2023-05-08T06:16:17;12.40;99.90
55083;DHT22;40978;52.850;6.506;2023-05-08T06:18:45;12.50;99.90
55083;DHT22;40978;52.850;6.506;2023-05-08T06:21:11;12.50;99.90
55083;DHT22;40978;52.850;6.506;2023-05-08T06:23:36;12.70;99.90
55083;DHT22;40978;52.850;6.506;2023-05-08T06:26:02;12.90;99.90
55083;DHT22;40978;52.850;6.506;2023-05-08T06:28:28;13.10;99.90
55083;DHT22;40978;52.850;6.506;2023-05-08T06:30:54;13.30;99.90
55083;DHT22;40978;52.850;6.506;2023-05-08T06:33:19;13.50;99.90
55083;DHT22;40978;52.850;6.506;2023-05-08T06:35:46;13.50;99.90
55083;DHT22;40978;52.850;6.506;2023-05-08T06:38:12;13.60;99.90
55083;DHT22;40978;52.850;6.506;2023-05-08T06:40:45;13.70;99.90
55083;DHT22;40978;52.850;6.506;2023-05-08T06:43:12;13.70;99.90
55083;DHT22;40978;52.850;6.506;2023-05-08T06:45:38;13.80;99.90
55083;DHT22;40978;52.850;6.506;2023-05-08T06:48:04;13.80;99.90
55083;DHT22;40978;52.850;6.506;2023-05-08T06:50:30;14.00;99.90
55083;DHT22;40978;52.850;6.506;2023-05-08T06:52:56;14.10;99.90
55083;DHT22;40978;52.850;6.506;2023-05-08T06:55:22;14.20;99.90
55083;DHT22;40978;52.850;6.506;2023-05-08T06:57:48;14.40;99.90
55083;DHT22;40978;52.850;6.506;2023-05-08T07:00:14;14.50;99.90
55083;DHT22;40978;52.850;6.506;2023-05-08T07:02:39;14.70;99.90
55083;DHT22;40978;52.850;6.506;2023-05-08T07:05:06;14.90;99.90
55083;DHT22;40978;52.850;6.506;2023-05-08T07:07:31;15.10;99.90
55083;DHT22;40978;52.850;6.506;2023-05-08T07:09:57;15.30;99.90
55083;DHT22;40978;52.850;6.506;2023-05-08T07:12:23;15.40;99.90
55083;DHT22;40978;52.850;6.506;2023-05-08T07:14:48;15.50;99.90
55083;DHT22;40978;52.850;6.506;2023-05-08T07:17:14;15.50;99.90
55083;DHT22;40978;52.850;6.506;2023-05-08T07:19:40;15.50;99.90
55083;DHT22;40978;52.850;6.506;2023-05-08T07:22:06;15.50;99.90
55083;DHT22;40978;52.850;6.506;2023-05-08T07:24:32;15.50;99.90
55083;DHT22;40978;52.850;6.506;2023-05-08T07:26:57;15.60;99.90
55083;DHT22;40978;52.850;6.506;2023-05-08T07:29:26;15.60;99.90
55083;DHT22;40978;52.850;6.506;2023-05-08T07:31:52;15.50;99.90
55083;DHT22;40978;52.850;6.506;2023-05-08T07:34:18;15.60;99.90
55083;DHT22;40978;52.850;6.506;2023-05-08T07:36:44;15.60;99.90
55083;DHT22;40978;52.850;6.506;2023-05-08T07:39:09;15.70;99.90
55083;DHT22;40978;52.850;6.506;2023-05-08T07:41:35;15.70;99.90
55083;DHT22;40978;52.850;6.506;2023-05-08T07:44:01;15.90;99.90
55083;DHT22;40978;52.850;6.506;2023-05-08T07:46:27;16.00;99.90
55083;DHT22;40978;52.850;6.506;2023-05-08T07:48:53;16.10;99.90
55083;DHT22;40978;52.850;6.506;2023-05-08T07:51:19;16.20;99.90
55083;DHT22;40978;52.850;6.506;2023-05-08T07:53:44;16.30;99.90
55083;DHT22;40978;52.850;6.506;2023-05-08T07:56:13;16.50;99.90
55083;DHT22;40978;52.850;6.506;2023-05-08T07:58:38;16.90;99.90
55083;DHT22;40978;52.850;6.506;2023-05-08T08:01:07;17.60;99.90
55083;DHT22;40978;52.850;6.506;2023-05-08T08:03:32;18.30;99.90
55083;DHT22;40978;52.850;6.506;2023-05-08T08:05:58;18.80;99.90
55083;DHT22;40978;52.850;6.506;2023-05-08T08:08:27;19.10;99.90
55083;DHT22;40978;52.850;6.506;2023-05-08T08:10:52;19.10;99.90
55083;DHT22;40978;52.850;6.506;2023-05-08T08:13:18;19.30;99.90
55083;DHT22;40978;52.850;6.506;2023-05-08T08:15:44;19.70;99.90
55083;DHT22;40978;52.850;6.506;2023-05-08T08:18:09;19.90;99.90
55083;DHT22;40978;52.850;6.506;2023-05-08T08:20:36;20.00;99.90
55083;DHT22;40978;52.850;6.506;2023-05-08T08:23:01;20.00;99.90
55083;DHT22;40978;52.850;6.506;2023-05-08T08:25:27;19.90;99.90
55083;DHT22;40978;52.850;6.506;2023-05-08T08:27:53;19.90;99.90
55083;DHT22;40978;52.850;6.506;2023-05-08T08:30:19;19.90;99.90
55083;DHT22;40978;52.850;6.506;2023-05-08T08:32:45;20.00;99.90
55083;DHT22;40978;52.850;6.506;2023-05-08T08:35:11;20.10;99.90
55083;DHT22;40978;52.850;6.506;2023-05-08T08:37:37;19.90;99.90
55083;DHT22;40978;52.850;6.506;2023-05-08T08:40:03;19.70;99.90
55083;DHT22;40978;52.850;6.506;2023-05-08T08:42:28;19.50;99.90
55083;DHT22;40978;52.850;6.506;2023-05-08T08:44:55;19.40;99.90
55083;DHT22;40978;52.850;6.506;2023-05-08T08:47:30;19.30;99.90
55083;DHT22;40978;52.850;6.506;2023-05-08T08:50:02;19.30;99.90
55083;DHT22;40978;52.850;6.506;2023-05-08T08:52:43;19.70;99.90
55083;DHT22;40978;52.850;6.506;2023-05-08T08:55:14;20.60;99.90
55083;DHT22;40978;52.850;6.506;2023-05-08T09:00:20;22.10;99.90
55083;DHT22;40978;52.850;6.506;2023-05-08T09:02:46;22.40;99.90
55083;DHT22;40978;52.850;6.506;2023-05-08T09:05:13;22.70;99.90
55083;DHT22;40978;52.850;6.506;2023-05-08T09:07:39;22.90;99.90
55083;DHT22;40978;52.850;6.506;2023-05-08T09:10:08;23.20;99.90
55083;DHT22;40978;52.850;6.506;2023-05-08T09:12:40;23.30;99.90
55083;DHT22;40978;52.850;6.506;2023-05-08T09:15:06;23.40;99.90
55083;DHT22;40978;52.850;6.506;2023-05-08T09:17:32;23.10;99.90
55083;DHT22;40978;52.850;6.506;2023-05-08T09:19:57;22.80;99.90
55083;DHT22;40978;52.850;6.506;2023-05-08T09:22:25;22.60;99.90
55083;DHT22;40978;52.850;6.506;2023-05-08T09:24:54;22.40;99.90
55083;DHT22;40978;52.850;6.506;2023-05-08T09:27:23;22.30;99.90
55083;DHT22;40978;52.850;6.506;2023-05-08T09:30:08;22.30;99.90
55083;DHT22;40978;52.850;6.506;2023-05-08T09:32:40;22.10;99.90
55083;DHT22;40978;52.850;6.506;2023-05-08T09:35:07;21.70;99.90
55083;DHT22;40978;52.850;6.506;2023-05-08T09:37:40;21.60;99.90
55083;DHT22;40978;52.850;6.506;2023-05-08T09:40:18;21.50;99.90
55083;DHT22;40978;52.850;6.506;2023-05-08T09:42:46;21.90;99.90
55083;DHT22;40978;52.850;6.506;2023-05-08T09:45:30;22.30;99.90
55083;DHT22;40978;52.850;6.506;2023-05-08T09:47:56;22.60;99.90
55083;DHT22;40978;52.850;6.506;2023-05-08T09:50:22;22.70;99.90
55083;DHT22;40978;52.850;6.506;2023-05-08T09:52:48;23.00;99.90
55083;DHT22;40978;52.850;6.506;2023-05-08T09:55:15;23.30;99.90
55083;DHT22;40978;52.850;6.506;2023-05-08T09:58:10;23.70;99.90
55083;DHT22;40978;52.850;6.506;2023-05-08T10:00:38;23.90;99.90
55083;DHT22;40978;52.850;6.506;2023-05-08T10:03:04;24.00;99.90
55083;DHT22;40978;52.850;6.506;2023-05-08T10:05:31;24.20;99.90
55083;DHT22;40978;52.850;6.506;2023-05-08T10:08:17;24.20;99.90
55083;DHT22;40978;52.850;6.506;2023-05-08T10:10:43;24.30;99.90
55083;DHT22;40978;52.850;6.506;2023-05-08T10:13:09;24.10;99.90
55083;DHT22;40978;52.850;6.506;2023-05-08T10:15:36;24.10;99.90
55083;DHT22;40978;52.850;6.506;2023-05-08T10:18:04;24.10;99.90
55083;DHT22;40978;52.850;6.506;2023-05-08T10:20:32;23.90;99.90
55083;DHT22;40978;52.850;6.506;2023-05-08T10:22:58;23.80;99.90
55083;DHT22;40978;52.850;6.506;2023-05-08T10:25:24;23.90;99.90
55083;DHT22;40978;52.850;6.506;2023-05-08T10:30:25;24.50;99.90
55083;DHT22;40978;52.850;6.506;2023-05-08T10:32:52;24.90;99.90
55083;DHT22;40978;52.850;6.506;2023-05-08T10:35:22;25.50;99.90
55083;DHT22;40978;52.850;6.506;2023-05-08T10:37:48;25.80;99.90
55083;DHT22;40978;52.850;6.506;2023-05-08T10:40:14;25.90;99.70
55083;DHT22;40978;52.850;6.506;2023-05-08T10:42:41;26.10;99.10
55083;DHT22;40978;52.850;6.506;2023-05-08T10:45:07;26.30;98.50
55083;DHT22;40978;52.850;6.506;2023-05-08T10:50:53;26.60;96.70
55083;DHT22;40978;52.850;6.506;2023-05-08T10:53:41;26.60;96.20
55083;DHT22;40978;52.850;6.506;2023-05-08T10:56:10;26.40;94.20
55083;DHT22;40978;52.850;6.506;2023-05-08T10:58:36;26.10;94.90
55083;DHT22;40978;52.850;6.506;2023-05-08T11:03:39;26.10;95.80
55083;DHT22;40978;52.850;6.506;2023-05-08T11:06:06;26.20;96.90
55083;DHT22;40978;52.850;6.506;2023-05-08T11:08:32;26.40;96.70
55083;DHT22;40978;52.850;6.506;2023-05-08T11:13:46;26.90;95.30
55083;DHT22;40978;52.850;6.506;2023-05-08T11:16:12;27.20;94.00
55083;DHT22;40978;52.850;6.506;2023-05-08T11:19:17;27.20;93.40
55083;DHT22;40978;52.850;6.506;2023-05-08T11:25:08;27.10;93.80
55083;DHT22;40978;52.850;6.506;2023-05-08T11:33:18;26.60;92.10
55083;DHT22;40978;52.850;6.506;2023-05-08T11:35:57;26.50;93.30
55083;DHT22;40978;52.850;6.506;2023-05-08T11:38:30;26.70;93.00
55083;DHT22;40978;52.850;6.506;2023-05-08T11:41:07;26.80;93.00
55083;DHT22;40978;52.850;6.506;2023-05-08T11:46:03;27.10;93.20
55083;DHT22;40978;52.850;6.506;2023-05-08T11:48:32;27.30;93.10
55083;DHT22;40978;52.850;6.506;2023-05-08T11:50:59;27.60;92.10
55083;DHT22;40978;52.850;6.506;2023-05-08T11:53:25;27.70;92.70
55083;DHT22;40978;52.850;6.506;2023-05-08T11:55:52;27.80;91.70
55083;DHT22;40978;52.850;6.506;2023-05-08T11:58:18;27.80;91.30
55083;DHT22;40978;52.850;6.506;2023-05-08T12:00:45;27.90;91.20
55083;DHT22;40978;52.850;6.506;2023-05-08T12:03:12;27.90;90.40
55083;DHT22;40978;52.850;6.506;2023-05-08T12:05:38;27.90;90.20
55083;DHT22;40978;52.850;6.506;2023-05-08T12:08:06;27.90;90.40
55083;DHT22;40978;52.850;6.506;2023-05-08T12:10:32;27.80;90.00
55083;DHT22;40978;52.850;6.506;2023-05-08T12:13:15;27.70;90.30
55083;DHT22;40978;52.850;6.506;2023-05-08T12:15:41;27.30;87.30
55083;DHT22;40978;52.850;6.506;2023-05-08T12:18:07;27.00;89.00
55083;DHT22;40978;52.850;6.506;2023-05-08T12:20:32;26.80;90.10
55083;DHT22;40978;52.850;6.506;2023-05-08T12:23:01;26.80;89.70
55083;DHT22;40978;52.850;6.506;2023-05-08T12:25:27;27.10;90.10
55083;DHT22;40978;52.850;6.506;2023-05-08T12:27:54;27.30;91.30
55083;DHT22;40978;52.850;6.506;2023-05-08T12:30:20;27.70;90.10
55083;DHT22;40978;52.850;6.506;2023-05-08T12:32:46;27.70;89.20
55083;DHT22;40978;52.850;6.506;2023-05-08T12:35:13;27.20;89.00
55083;DHT22;40978;52.850;6.506;2023-05-08T12:37:39;26.70;90.10
55083;DHT22;40978;52.850;6.506;2023-05-08T12:40:06;26.30;90.10
55083;DHT22;40978;52.850;6.506;2023-05-08T12:45:18;26.20;91.70
55083;DHT22;40978;52.850;6.506;2023-05-08T12:47:48;26.20;91.50
55083;DHT22;40978;52.850;6.506;2023-05-08T12:50:15;26.00;92.40
55083;DHT22;40978;52.850;6.506;2023-05-08T12:52:41;25.90;92.20
55083;DHT22;40978;52.850;6.506;2023-05-08T12:55:24;25.80;93.10
55083;DHT22;40978;52.850;6.506;2023-05-08T12:58:00;26.00;93.10
55083;DHT22;40978;52.850;6.506;2023-05-08T13:00:39;26.00;92.80
55083;DHT22;40978;52.850;6.506;2023-05-08T13:03:06;26.10;92.90
55083;DHT22;40978;52.850;6.506;2023-05-08T13:05:39;26.40;93.40
55083;DHT22;40978;52.850;6.506;2023-05-08T13:08:07;26.70;92.50
55083;DHT22;40978;52.850;6.506;2023-05-08T13:10:56;26.80;93.60
55083;DHT22;40978;52.850;6.506;2023-05-08T13:13:23;26.90;92.20
55083;DHT22;40978;52.850;6.506;2023-05-08T13:15:51;27.10;92.20
55083;DHT22;40978;52.850;6.506;2023-05-08T13:18:18;27.40;92.00
55083;DHT22;40978;52.850;6.506;2023-05-08T13:20:47;27.30;91.30
55083;DHT22;40978;52.850;6.506;2023-05-08T13:23:13;26.90;91.10
55083;DHT22;40978;52.850;6.506;2023-05-08T13:25:39;26.40;91.80
55083;DHT22;40978;52.850;6.506;2023-05-08T13:28:07;26.20;90.90
55083;DHT22;40978;52.850;6.506;2023-05-08T13:30:33;26.00;91.00
55083;DHT22;40978;52.850;6.506;2023-05-08T13:33:00;26.00;92.10
55083;DHT22;40978;52.850;6.506;2023-05-08T13:35:25;26.10;91.80
55083;DHT22;40978;52.850;6.506;2023-05-08T13:37:54;26.20;91.40
55083;DHT22;40978;52.850;6.506;2023-05-08T13:40:20;26.20;91.30
55083;DHT22;40978;52.850;6.506;2023-05-08T13:42:45;26.20;91.70
55083;DHT22;40978;52.850;6.506;2023-05-08T13:45:12;26.10;91.70
55083;DHT22;40978;52.850;6.506;2023-05-08T13:47:43;26.00;92.30
55083;DHT22;40978;52.850;6.506;2023-05-08T13:50:10;25.80;91.50
55083;DHT22;40978;52.850;6.506;2023-05-08T13:52:37;25.60;91.70
55083;DHT22;40978;52.850;6.506;2023-05-08T13:55:08;25.60;92.70
55083;DHT22;40978;52.850;6.506;2023-05-08T13:57:34;25.70;92.10
55083;DHT22;40978;52.850;6.506;2023-05-08T14:00:01;25.60;91.90
55083;DHT22;40978;52.850;6.506;2023-05-08T14:02:27;25.40;92.50
55083;DHT22;40978;52.850;6.506;2023-05-08T14:04:53;25.30;92.50
55083;DHT22;40978;52.850;6.506;2023-05-08T14:07:18;25.10;93.10
55083;DHT22;40978;52.850;6.506;2023-05-08T14:09:45;25.10;93.00
55083;DHT22;40978;52.850;6.506;2023-05-08T14:12:11;25.10;93.60
55083;DHT22;40978;52.850;6.506;2023-05-08T14:14:37;25.10;93.50
55083;DHT22;40978;52.850;6.506;2023-05-08T14:17:06;24.90;93.30
55083;DHT22;40978;52.850;6.506;2023-05-08T14:19:32;24.80;93.50
55083;DHT22;40978;52.850;6.506;2023-05-08T14:21:57;24.60;94.10
55083;DHT22;40978;52.850;6.506;2023-05-08T14:24:23;24.40;94.70
55083;DHT22;40978;52.850;6.506;2023-05-08T14:26:49;24.20;95.30
55083;DHT22;40978;52.850;6.506;2023-05-08T14:29:15;23.90;96.00
55083;DHT22;40978;52.850;6.506;2023-05-08T14:31:41;23.70;96.80
55083;DHT22;40978;52.850;6.506;2023-05-08T14:34:07;23.60;97.30
55083;DHT22;40978;52.850;6.506;2023-05-08T14:36:33;23.40;97.30
55083;DHT22;40978;52.850;6.506;2023-05-08T14:38:58;23.30;98.20
55083;DHT22;40978;52.850;6.506;2023-05-08T14:41:29;23.10;99.50
55083;DHT22;40978;52.850;6.506;2023-05-08T14:43:55;22.90;99.90
55083;DHT22;40978;52.850;6.506;2023-05-08T14:46:21;22.70;99.90
55083;DHT22;40978;52.850;6.506;2023-05-08T14:48:46;22.50;99.90
55083;DHT22;40978;52.850;6.506;2023-05-08T14:51:12;22.10;99.90
55083;DHT22;40978;52.850;6.506;2023-05-08T14:53:39;21.80;99.90
55083;DHT22;40978;52.850;6.506;2023-05-08T14:56:05;21.50;99.90
55083;DHT22;40978;52.850;6.506;2023-05-08T14:58:31;21.20;99.90
55083;DHT22;40978;52.850;6.506;2023-05-08T15:00:57;20.80;99.90
55083;DHT22;40978;52.850;6.506;2023-05-08T15:03:23;20.50;99.90
55083;DHT22;40978;52.850;6.506;2023-05-08T15:05:48;20.30;99.90
55083;DHT22;40978;52.850;6.506;2023-05-08T15:08:15;19.90;99.90
55083;DHT22;40978;52.850;6.506;2023-05-08T15:10:41;19.50;99.90
55083;DHT22;40978;52.850;6.506;2023-05-08T15:13:07;19.00;99.90
55083;DHT22;40978;52.850;6.506;2023-05-08T15:15:33;18.50;99.90
55083;DHT22;40978;52.850;6.506;2023-05-08T15:17:58;18.10;99.90
55083;DHT22;40978;52.850;6.506;2023-05-08T15:20:24;17.70;99.90
55083;DHT22;40978;52.850;6.506;2023-05-08T15:22:50;17.40;99.90
55083;DHT22;40978;52.850;6.506;2023-05-08T15:25:16;17.30;99.90
55083;DHT22;40978;52.850;6.506;2023-05-08T15:27:41;17.10;99.90
55083;DHT22;40978;52.850;6.506;2023-05-08T15:30:08;17.00;99.90
55083;DHT22;40978;52.850;6.506;2023-05-08T15:32:33;16.90;99.90
55083;DHT22;40978;52.850;6.506;2023-05-08T15:35:00;16.90;99.90
55083;DHT22;40978;52.850;6.506;2023-05-08T15:37:26;16.90;99.90
55083;DHT22;40978;52.850;6.506;2023-05-08T15:39:52;16.90;99.90
55083;DHT22;40978;52.850;6.506;2023-05-08T15:42:18;16.90;99.90
55083;DHT22;40978;52.850;6.506;2023-05-08T15:44:45;16.90;99.90
55083;DHT22;40978;52.850;6.506;2023-05-08T15:47:11;16.90;99.90
55083;DHT22;40978;52.850;6.506;2023-05-08T15:49:36;16.90;99.90
55083;DHT22;40978;52.850;6.506;2023-05-08T15:52:02;17.00;99.90
55083;DHT22;40978;52.850;6.506;2023-05-08T15:54:28;17.00;99.90
55083;DHT22;40978;52.850;6.506;2023-05-08T15:56:54;17.00;99.90
55083;DHT22;40978;52.850;6.506;2023-05-08T15:59:20;17.00;99.90
55083;DHT22;40978;52.850;6.506;2023-05-08T16:01:45;17.00;99.90
55083;DHT22;40978;52.850;6.506;2023-05-08T16:04:11;17.10;99.90
55083;DHT22;40978;52.850;6.506;2023-05-08T16:06:37;17.20;99.90
55083;DHT22;40978;52.850;6.506;2023-05-08T16:09:03;17.20;99.90
55083;DHT22;40978;52.850;6.506;2023-05-08T16:11:31;17.20;99.90
55083;DHT22;40978;52.850;6.506;2023-05-08T16:13:58;17.30;99.90
55083;DHT22;40978;52.850;6.506;2023-05-08T16:16:27;17.30;99.90
55083;DHT22;40978;52.850;6.506;2023-05-08T16:18:53;17.40;99.90
55083;DHT22;40978;52.850;6.506;2023-05-08T16:21:19;17.50;99.90
55083;DHT22;40978;52.850;6.506;2023-05-08T16:23:45;17.50;99.90
55083;DHT22;40978;52.850;6.506;2023-05-08T16:26:11;17.50;99.90